createdAt,value
2018-07-24T00:00:08.453Z,17.59
2018-07-24T00:02:37.820Z,17.54
2018-07-24T00:05:07.251Z,17.51
2018-07-24T00:07:36.626Z,17.41
2018-07-24T00:10:07.624Z,17.48
2018-07-24T00:12:38.672Z,17.48
2018-07-24T00:15:09.192Z,17.51
2018-07-24T00:17:39.339Z,17.52
2018-07-24T00:20:09.434Z,17.51
2018-07-24T00:22:38.918Z,17.43
2018-07-24T00:25:08.300Z,17.46
2018-07-24T00:27:38.167Z,17.50
2018-07-24T00:30:07.702Z,17.45
2018-07-24T00:32:37.152Z,17.49
2018-07-24T00:35:08.119Z,17.48
2018-07-24T00:37:37.573Z,17.44
2018-07-24T00:40:07.025Z,17.30
2018-07-24T00:42:36.747Z,17.36
2018-07-24T00:45:06.285Z,17.33
2018-07-24T00:47:35.776Z,17.37
2018-07-24T00:50:05.549Z,17.32
2018-07-24T00:52:34.834Z,17.37
2018-07-24T00:55:04.293Z,17.33
2018-07-24T00:57:34.088Z,17.28
2018-07-24T01:00:03.558Z,17.30
2018-07-24T01:02:33.160Z,17.22
2018-07-24T01:05:02.936Z,17.26
2018-07-24T01:07:35.528Z,17.26
2018-07-24T01:10:05.244Z,17.32
2018-07-24T01:12:34.717Z,17.27
2018-07-24T01:15:04.226Z,17.32
2018-07-24T01:17:33.700Z,17.33
2018-07-24T01:20:03.153Z,17.19
2018-07-24T01:22:32.593Z,17.13
2018-07-24T01:25:01.970Z,17.15
2018-07-24T01:27:31.251Z,17.18
2018-07-24T01:30:00.603Z,17.22
2018-07-24T01:32:30.246Z,17.28
2018-07-24T01:34:59.687Z,17.33
2018-07-24T01:37:29.114Z,17.29
2018-07-24T01:39:58.619Z,17.24
2018-07-24T01:42:27.941Z,17.28
2018-07-24T01:44:57.400Z,17.29
2018-07-24T01:47:27.180Z,17.28
2018-07-24T01:49:56.452Z,17.28
2018-07-24T01:52:25.886Z,17.30
2018-07-24T01:54:55.353Z,17.17
2018-07-24T01:57:24.652Z,17.24
2018-07-24T01:59:54.164Z,17.21
2018-07-24T02:02:24.074Z,17.23
2018-07-24T02:04:53.491Z,17.24
2018-07-24T02:07:22.997Z,17.24
2018-07-24T02:09:52.831Z,17.30
2018-07-24T02:12:22.253Z,17.21
2018-07-24T02:14:51.777Z,17.14
2018-07-24T02:17:21.564Z,17.12
2018-07-24T02:19:50.905Z,17.14
2018-07-24T02:22:20.223Z,17.14
2018-07-24T02:24:49.877Z,17.13
2018-07-24T02:27:19.476Z,17.16
2018-07-24T02:29:49.265Z,17.16
2018-07-24T02:32:18.974Z,17.10
2018-07-24T02:34:48.897Z,17.21
2018-07-24T02:37:18.262Z,17.14
2018-07-24T02:39:48.130Z,17.19
2018-07-24T02:42:17.474Z,17.11
2018-07-24T02:44:47.151Z,17.12
2018-07-24T02:47:16.820Z,17.13
2018-07-24T02:49:46.161Z,17.05
2018-07-24T02:52:15.590Z,17.05
2018-07-24T02:54:46.112Z,17.12
2018-07-24T02:57:15.478Z,17.02
2018-07-24T02:59:44.828Z,17.01
2018-07-24T03:02:14.534Z,17.07
2018-07-24T03:04:44.023Z,17.14
2018-07-24T03:07:13.320Z,17.10
2018-07-24T03:09:43.050Z,17.09
2018-07-24T03:12:12.717Z,17.11
2018-07-24T03:14:42.170Z,17.12
2018-07-24T03:17:11.800Z,17.09
2018-07-24T03:19:41.130Z,17.09
2018-07-24T03:22:10.640Z,17.11
2018-07-24T03:24:40.147Z,17.08
2018-07-24T03:27:09.550Z,17.03
2018-07-24T03:29:39.061Z,17.10
2018-07-24T03:32:09.090Z,17.08
2018-07-24T03:34:38.945Z,17.16
2018-07-24T03:37:08.727Z,17.18
2018-07-24T03:39:38.109Z,17.20
2018-07-24T03:42:08.261Z,17.36
2018-07-24T03:44:38.478Z,17.29
2018-07-24T03:47:07.992Z,17.29
2018-07-24T03:49:37.407Z,17.21
2018-07-24T03:52:07.077Z,17.18
2018-07-24T03:54:36.639Z,17.18
2018-07-24T03:57:06.076Z,17.07
2018-07-24T03:59:35.956Z,17.20
2018-07-24T04:02:05.339Z,17.23
2018-07-24T04:04:34.864Z,17.31
2018-07-24T04:07:04.668Z,17.24
2018-07-24T04:09:34.149Z,17.27
2018-07-24T04:12:03.484Z,17.18
2018-07-24T04:14:33.021Z,17.13
2018-07-24T04:17:02.549Z,17.14
2018-07-24T04:19:31.859Z,17.14
2018-07-24T04:22:01.621Z,17.16
2018-07-24T04:24:31.358Z,17.24
2018-07-24T04:27:01.160Z,17.21
2018-07-24T04:29:31.131Z,17.20
2018-07-24T04:32:00.621Z,17.25
2018-07-24T04:34:32.688Z,17.21
2018-07-24T04:37:07.645Z,17.19
2018-07-24T04:39:37.757Z,17.19
2018-07-24T04:42:07.211Z,17.18
2018-07-24T04:44:37.130Z,17.19
2018-07-24T04:47:07.554Z,17.23
2018-07-24T04:49:37.460Z,17.29
2018-07-24T04:52:08.342Z,17.19
2018-07-24T04:54:43.372Z,17.24
2018-07-24T04:57:13.148Z,17.31
2018-07-24T04:59:43.287Z,17.43
2018-07-24T05:02:12.893Z,17.55
2018-07-24T05:04:42.416Z,17.58
2018-07-24T05:07:12.176Z,17.53
2018-07-24T05:09:43.728Z,17.43
2018-07-24T05:12:15.643Z,17.35
2018-07-24T05:14:45.828Z,17.39
2018-07-24T05:17:15.944Z,17.42
2018-07-24T05:19:46.237Z,17.39
2018-07-24T05:22:16.072Z,17.35
2018-07-24T05:24:45.811Z,17.33
2018-07-24T05:27:15.965Z,17.32
2018-07-24T05:29:45.793Z,17.35
2018-07-24T05:32:15.377Z,17.33
2018-07-24T05:34:45.320Z,17.33
2018-07-24T05:37:14.890Z,17.39
2018-07-24T05:39:44.698Z,17.41
2018-07-24T05:42:15.200Z,17.50
2018-07-24T05:44:44.663Z,17.51
2018-07-24T05:47:14.347Z,17.56
2018-07-24T05:49:43.981Z,17.56
2018-07-24T05:52:13.782Z,17.55
2018-07-24T05:54:44.062Z,17.60
2018-07-24T05:57:13.662Z,17.58
2018-07-24T05:59:43.528Z,17.60
2018-07-24T06:02:13.486Z,17.67
2018-07-24T06:04:43.094Z,17.70
2018-07-24T06:07:12.974Z,17.77
2018-07-24T06:09:43.107Z,17.73
2018-07-24T06:12:13.208Z,17.86
2018-07-24T06:14:42.826Z,17.88
2018-07-24T06:17:12.416Z,17.93
2018-07-24T06:19:41.988Z,17.95
2018-07-24T06:22:12.040Z,17.90
2018-07-24T06:24:41.845Z,18.05
2018-07-24T06:27:12.428Z,18.08
2018-07-24T06:29:42.108Z,18.13
2018-07-24T06:32:11.864Z,18.23
2018-07-24T06:34:41.841Z,18.24
2018-07-24T06:37:11.546Z,18.23
2018-07-24T06:39:41.523Z,18.32
2018-07-24T06:42:11.559Z,18.43
2018-07-24T06:44:41.330Z,18.51
2018-07-24T06:47:11.144Z,18.57
2018-07-24T06:49:41.339Z,18.66
2018-07-24T06:52:11.244Z,18.66
2018-07-24T06:54:41.110Z,18.77
2018-07-24T06:57:12.015Z,18.78
2018-07-24T06:59:41.912Z,18.88
2018-07-24T07:02:11.534Z,18.84
2018-07-24T07:04:41.265Z,18.98
2018-07-24T07:07:11.102Z,18.98
2018-07-24T07:09:41.601Z,18.69
2018-07-24T07:12:11.548Z,19.06
2018-07-24T07:14:41.151Z,19.09
2018-07-24T07:17:11.134Z,19.06
2018-07-24T07:19:41.174Z,18.98
2018-07-24T07:22:10.830Z,19.00
2018-07-24T07:24:40.651Z,18.92
2018-07-24T07:27:10.557Z,18.85
2018-07-24T07:29:40.125Z,18.90
2018-07-24T07:32:09.925Z,18.86
2018-07-24T07:34:39.396Z,18.83
2018-07-24T07:37:09.142Z,18.91
2018-07-24T07:39:38.935Z,18.92
2018-07-24T07:42:08.719Z,18.99
2018-07-24T07:44:38.314Z,19.03
2018-07-24T07:47:07.744Z,19.14
2018-07-24T07:49:37.570Z,19.25
2018-07-24T07:52:07.146Z,19.28
2018-07-24T07:54:37.028Z,19.48
2018-07-24T07:57:07.380Z,19.63
2018-07-24T07:59:36.990Z,19.72
2018-07-24T08:02:06.836Z,19.94
2018-07-24T08:04:37.692Z,19.90
2018-07-24T08:07:07.505Z,19.94
2018-07-24T08:09:37.294Z,20.04
2018-07-24T08:12:06.772Z,20.16
2018-07-24T08:14:36.796Z,20.14
2018-07-24T08:17:06.324Z,20.19
2018-07-24T08:19:36.165Z,20.18
2018-07-24T08:22:05.769Z,20.24
2018-07-24T08:24:35.265Z,20.33
2018-07-24T08:27:05.486Z,20.27
2018-07-24T08:29:35.097Z,20.26
2018-07-24T08:32:04.667Z,20.25
2018-07-24T08:34:35.059Z,20.23
2018-07-24T08:37:05.353Z,20.35
2018-07-24T08:39:36.168Z,20.55
2018-07-24T08:42:05.666Z,20.55
2018-07-24T08:44:35.655Z,20.73
2018-07-24T08:47:06.320Z,20.80
2018-07-24T08:49:36.194Z,21.12
2018-07-24T08:52:05.781Z,21.23
2018-07-24T08:54:35.695Z,21.38
2018-07-24T08:57:05.058Z,21.51
2018-07-24T08:59:34.602Z,21.40
2018-07-24T09:02:04.515Z,21.31
2018-07-24T09:04:36.248Z,21.25
2018-07-24T09:07:08.204Z,20.75
2018-07-24T09:09:38.253Z,21.09
2018-07-24T09:12:08.052Z,20.94
2018-07-24T09:14:37.564Z,20.95
2018-07-24T09:17:07.297Z,21.03
2018-07-24T09:19:36.935Z,21.20
2018-07-24T09:22:07.427Z,21.31
2018-07-24T09:24:38.567Z,21.46
2018-07-24T09:27:09.371Z,21.68
2018-07-24T09:29:39.351Z,21.93
2018-07-24T09:32:09.190Z,21.96
2018-07-24T09:34:39.260Z,21.71
2018-07-24T09:37:08.580Z,21.67
2018-07-24T09:39:38.198Z,21.58
2018-07-24T09:42:08.460Z,21.68
2018-07-24T09:44:38.173Z,21.69
2018-07-24T09:47:08.107Z,21.64
2018-07-24T09:49:38.103Z,21.68
2018-07-24T09:52:07.611Z,21.73
2018-07-24T09:54:37.337Z,21.77
2018-07-24T09:57:07.306Z,21.93
2018-07-24T09:59:36.733Z,21.87
2018-07-24T10:02:06.365Z,22.22
2018-07-24T10:04:36.404Z,22.28
2018-07-24T10:07:07.777Z,22.32
2018-07-24T10:09:37.798Z,22.40
2018-07-24T10:12:07.993Z,22.48
2018-07-24T10:14:37.657Z,22.48
2018-07-24T10:17:07.718Z,22.54
2018-07-24T10:19:37.229Z,22.63
2018-07-24T10:22:08.011Z,22.60
2018-07-24T10:24:37.628Z,22.49
2018-07-24T10:27:07.242Z,22.49
2018-07-24T10:29:37.312Z,22.63
2018-07-24T10:32:06.899Z,22.73
2018-07-24T10:34:37.240Z,22.86
2018-07-24T10:37:07.495Z,22.97
2018-07-24T10:39:37.379Z,22.97
2018-07-24T10:42:07.088Z,22.99
2018-07-24T10:44:36.887Z,23.08
2018-07-24T10:47:06.490Z,23.23
2018-07-24T10:49:36.194Z,23.28
2018-07-24T10:52:05.748Z,23.53
2018-07-24T10:54:35.411Z,23.75
2018-07-24T10:57:04.976Z,23.84
2018-07-24T10:59:35.289Z,24.12
2018-07-24T11:02:04.732Z,24.18
2018-07-24T11:04:34.230Z,24.41
2018-07-24T11:07:04.170Z,24.19
2018-07-24T11:09:33.606Z,24.05
2018-07-24T11:12:03.016Z,23.95
2018-07-24T11:14:33.030Z,23.73
2018-07-24T11:17:02.557Z,23.83
2018-07-24T11:19:32.221Z,23.68
2018-07-24T11:22:02.490Z,23.76
2018-07-24T11:24:31.863Z,23.85
2018-07-24T11:27:01.455Z,24.08
2018-07-24T11:29:31.293Z,24.20
2018-07-24T11:32:01.172Z,24.43
2018-07-24T11:34:30.675Z,24.79
2018-07-24T11:37:00.721Z,25.40
2018-07-24T11:39:30.226Z,25.78
2018-07-24T11:41:59.891Z,25.74
2018-07-24T11:44:31.635Z,25.74
2018-07-24T11:47:01.814Z,25.64
2018-07-24T11:49:32.929Z,25.61
2018-07-24T11:52:03.846Z,25.63
2018-07-24T11:54:34.266Z,25.82
2018-07-24T11:57:03.978Z,26.15
2018-07-24T11:59:33.433Z,26.72
2018-07-24T12:02:03.281Z,27.26
2018-07-24T12:04:33.074Z,27.56
2018-07-24T12:07:03.173Z,26.97
2018-07-24T12:09:33.202Z,27.00
2018-07-24T12:12:03.119Z,26.52
2018-07-24T12:14:32.909Z,25.99
2018-07-24T12:17:03.431Z,25.60
2018-07-24T12:19:33.159Z,25.26
2018-07-24T12:22:03.367Z,25.03
2018-07-24T12:24:33.105Z,25.08
2018-07-24T12:27:02.916Z,25.09
2018-07-24T12:29:32.541Z,25.01
2018-07-24T12:32:02.812Z,25.15
2018-07-24T12:34:32.357Z,24.65
2018-07-24T12:37:02.292Z,24.34
2018-07-24T12:39:33.768Z,24.15
2018-07-24T12:42:05.024Z,23.90
2018-07-24T12:44:35.230Z,23.75
2018-07-24T12:47:05.003Z,23.41
2018-07-24T12:49:34.731Z,23.16
2018-07-24T12:52:04.705Z,22.87
2018-07-24T12:54:34.468Z,22.75
2018-07-24T12:57:03.915Z,22.56
2018-07-24T12:59:34.901Z,22.36
2018-07-24T13:02:04.751Z,22.21
2018-07-24T13:04:34.939Z,22.18
2018-07-24T13:07:05.858Z,21.92
2018-07-24T13:09:35.293Z,21.69
2018-07-24T13:12:04.801Z,21.56
2018-07-24T13:14:34.760Z,21.67
2018-07-24T13:17:04.341Z,21.46
2018-07-24T13:19:34.336Z,21.28
2018-07-24T13:22:04.128Z,21.45
2018-07-24T13:24:33.894Z,21.38
2018-07-24T13:27:03.380Z,21.43
2018-07-24T13:29:33.585Z,20.93
2018-07-24T13:32:03.375Z,20.93
2018-07-24T13:34:32.913Z,20.99
2018-07-24T13:37:02.906Z,21.00
2018-07-24T13:39:32.415Z,20.97
2018-07-24T13:42:02.001Z,20.68
2018-07-24T13:44:32.268Z,20.68
2018-07-24T13:47:01.940Z,20.61
2018-07-24T13:49:31.477Z,20.76
2018-07-24T13:52:01.335Z,20.95
2018-07-24T13:54:31.217Z,21.10
2018-07-24T13:57:00.815Z,21.28
2018-07-24T13:59:30.447Z,21.32
2018-07-24T14:02:00.097Z,21.58
2018-07-24T14:04:32.358Z,21.79
2018-07-24T14:07:01.964Z,21.96
2018-07-24T14:09:31.497Z,22.07
2018-07-24T14:12:01.427Z,22.54
2018-07-24T14:14:31.429Z,22.63
2018-07-24T14:17:00.950Z,22.66
2018-07-24T14:19:32.696Z,22.79
2018-07-24T14:22:02.790Z,23.11
2018-07-24T14:24:34.225Z,22.82
2018-07-24T14:27:04.097Z,23.03
2018-07-24T14:29:33.973Z,23.27
2018-07-24T14:32:04.055Z,23.68
2018-07-24T14:34:34.261Z,24.15
2018-07-24T14:37:04.216Z,24.73
2018-07-24T14:39:35.072Z,24.83
2018-07-24T14:42:04.571Z,24.63
2018-07-24T14:44:34.565Z,24.80
2018-07-24T14:47:06.043Z,24.64
2018-07-24T14:49:36.003Z,24.03
2018-07-24T14:52:06.388Z,23.86
2018-07-24T14:54:36.855Z,23.66
2018-07-24T14:57:08.169Z,23.47
2018-07-24T14:59:38.224Z,23.23
2018-07-24T15:02:08.566Z,23.01
2018-07-24T15:04:39.589Z,22.76
2018-07-24T15:07:09.103Z,22.55
2018-07-24T15:09:40.391Z,22.48
2018-07-24T15:12:11.384Z,22.38
2018-07-24T15:14:44.939Z,22.38
2018-07-24T15:17:14.925Z,22.13
2018-07-24T15:19:44.788Z,22.18
2018-07-24T15:22:14.375Z,22.16
2018-07-24T15:24:44.970Z,21.94
2018-07-24T15:27:14.514Z,21.90
2018-07-24T15:29:44.486Z,21.77
2018-07-24T15:32:15.587Z,21.67
2018-07-24T15:34:45.327Z,21.55
2018-07-24T15:37:15.498Z,21.52
2018-07-24T15:39:44.955Z,21.46
2018-07-24T15:42:15.300Z,21.32
2018-07-24T15:44:45.232Z,21.22
2018-07-24T15:47:15.828Z,21.09
2018-07-24T15:49:47.965Z,21.05
2018-07-24T15:52:17.551Z,21.02
2018-07-24T15:54:47.824Z,21.01
2018-07-24T15:57:18.693Z,21.03
2018-07-24T15:59:51.310Z,21.07
2018-07-24T16:02:21.536Z,21.12
2018-07-24T16:04:52.090Z,21.11
2018-07-24T16:07:22.779Z,21.13
2018-07-24T16:09:52.683Z,21.08
2018-07-24T16:12:22.384Z,20.95
2018-07-24T16:14:51.868Z,20.96
2018-07-24T16:17:21.881Z,20.91
2018-07-24T16:19:53.580Z,20.87
2018-07-24T16:22:29.701Z,20.83
2018-07-24T16:25:00.059Z,20.75
2018-07-24T16:27:29.561Z,20.82
2018-07-24T16:29:59.501Z,20.89
2018-07-24T16:32:28.985Z,20.87
2018-07-24T16:35:00.014Z,20.89
2018-07-24T16:37:29.710Z,20.86
2018-07-24T16:39:59.391Z,20.85
2018-07-24T16:42:29.113Z,20.89
2018-07-24T16:44:58.718Z,20.89
2018-07-24T16:47:32.059Z,20.92
2018-07-24T16:52:40.308Z,20.95
2018-07-24T16:55:10.268Z,20.87
2018-07-24T16:57:39.696Z,20.90
2018-07-24T17:00:09.274Z,20.91
2018-07-24T17:02:39.174Z,20.83
2018-07-24T17:05:08.883Z,20.84
2018-07-24T17:07:38.776Z,20.86
2018-07-24T17:10:08.814Z,20.84
2018-07-24T17:12:38.553Z,20.68
2018-07-24T17:15:08.729Z,20.70
2018-07-24T17:17:38.594Z,20.74
2018-07-24T17:20:08.169Z,20.68
2018-07-24T17:22:38.159Z,20.72
2018-07-24T17:25:08.441Z,20.71
2018-07-24T17:27:38.083Z,20.63
2018-07-24T17:30:07.749Z,20.61
2018-07-24T17:32:37.913Z,20.65
2018-07-24T17:35:07.498Z,20.64
2018-07-24T17:37:36.903Z,20.61
2018-07-24T17:40:07.232Z,20.62
2018-07-24T17:42:36.898Z,20.56
2018-07-24T17:45:07.124Z,20.59
2018-07-24T17:47:36.996Z,20.58
2018-07-24T17:50:06.628Z,20.50
2018-07-24T17:52:36.259Z,20.51
2018-07-24T17:55:06.210Z,20.50
2018-07-24T17:57:36.015Z,20.47
2018-07-24T18:00:05.652Z,20.46
2018-07-24T18:02:35.200Z,20.40
2018-07-24T18:05:04.699Z,20.45
2018-07-24T18:07:34.312Z,20.49
2018-07-24T18:10:03.794Z,20.46
2018-07-24T18:12:33.524Z,20.40
2018-07-24T18:15:02.973Z,20.40
2018-07-24T18:17:39.134Z,20.26
2018-07-24T18:20:08.692Z,20.22
2018-07-24T18:22:39.481Z,20.18
2018-07-24T18:25:09.151Z,20.06
2018-07-24T18:27:38.699Z,20.09
2018-07-24T18:30:10.433Z,20.01
2018-07-24T18:32:39.901Z,19.94
2018-07-24T18:35:09.570Z,19.89
2018-07-24T18:37:39.614Z,19.87
2018-07-24T18:40:10.035Z,19.82
2018-07-24T18:42:42.028Z,19.90
2018-07-24T18:45:12.464Z,19.86
2018-07-24T18:47:41.885Z,19.91
2018-07-24T18:50:12.091Z,19.91
2018-07-24T18:52:41.602Z,19.89
2018-07-24T18:55:13.881Z,19.89
2018-07-24T18:57:43.491Z,19.89
2018-07-24T19:00:13.414Z,19.90
2018-07-24T19:02:43.926Z,19.86
2018-07-24T19:05:14.756Z,19.80
2018-07-24T19:07:44.252Z,19.76
2018-07-24T19:10:14.274Z,19.86
2018-07-24T19:12:44.116Z,19.86
2018-07-24T19:15:13.700Z,19.80
2018-07-24T19:17:44.001Z,19.75
2018-07-24T19:20:16.086Z,19.63
2018-07-24T19:22:46.030Z,19.31
2018-07-24T19:25:15.945Z,19.23
2018-07-24T19:27:45.687Z,19.12
2018-07-24T19:30:15.415Z,18.96
2018-07-24T19:32:44.990Z,18.77
2018-07-24T19:35:14.476Z,18.73
2018-07-24T19:37:44.494Z,18.77
2018-07-24T19:40:13.967Z,18.77
2018-07-24T19:42:43.513Z,18.82
2018-07-24T19:45:14.332Z,18.86
2018-07-24T19:47:47.569Z,18.86
2018-07-24T19:50:17.350Z,18.84
2018-07-24T19:52:46.854Z,18.85
2018-07-24T19:55:16.660Z,18.82
2018-07-24T19:57:46.157Z,18.81
2018-07-24T20:00:15.583Z,18.82
2018-07-24T20:02:45.093Z,18.81
2018-07-24T20:05:14.756Z,18.83
2018-07-24T20:07:44.251Z,18.75
2018-07-24T20:10:13.559Z,18.71
2018-07-24T20:12:43.275Z,18.76
2018-07-24T20:15:17.992Z,18.64
2018-07-24T20:17:47.870Z,18.71
2018-07-24T20:20:18.198Z,18.70
2018-07-24T20:22:53.623Z,18.73
2018-07-24T20:25:25.883Z,18.69
2018-07-24T20:27:55.636Z,18.60
2018-07-24T20:30:26.388Z,18.69
2018-07-24T20:32:59.353Z,18.69
2018-07-24T20:35:29.055Z,18.65
2018-07-24T20:37:59.302Z,18.60
2018-07-24T20:40:29.371Z,18.58
2018-07-24T21:00:21.977Z,18.55
2018-07-24T21:02:51.787Z,18.52
2018-07-24T21:22:43.990Z,18.60
2018-07-24T21:25:16.645Z,18.59
2018-07-24T21:45:08.408Z,18.47
2018-07-24T21:47:38.032Z,18.42
2018-07-24T21:50:07.805Z,18.42
2018-07-24T21:52:37.923Z,18.47
2018-07-24T21:55:07.685Z,18.44
2018-07-24T21:57:37.080Z,18.44
2018-07-24T22:00:12.025Z,18.39
2018-07-24T22:02:41.548Z,18.43
2018-07-24T22:05:11.545Z,18.42
2018-07-24T22:07:41.483Z,18.33
2018-07-24T22:27:35.077Z,18.27
2018-07-24T22:30:06.948Z,18.28
2018-07-24T22:32:36.530Z,18.27
2018-07-24T22:35:10.853Z,18.28
2018-07-24T22:37:42.591Z,18.21
2018-07-24T22:57:38.100Z,18.23
2018-07-24T23:17:30.026Z,18.12
2018-07-24T23:20:01.013Z,18.18
2018-07-24T23:22:30.473Z,18.26
2018-07-24T23:25:01.400Z,18.29
2018-07-24T23:27:34.933Z,18.31
2018-07-24T23:30:04.909Z,18.32
2018-07-24T23:32:45.899Z,18.29
2018-07-24T23:52:40.681Z,18.17
2018-07-24T23:55:10.310Z,18.25
2018-07-24T23:57:42.089Z,18.19
